الصفحة الرئيسية
METAR-TAF:

METAR-TAF

مطار :

Yap, مايكرونيزيا

دائرة عرض: 09-29N, خط طول: 138-05E, ارتفاع: 28 متر

مراقبة الطقس الحالي

تاريخ ووقت الإصدار 12ساعات و 36 دقيقة قبل الساعة 04:50UTC
ريح 5 عقدةمن اتجاهات متغيرة
درجة الحرارة 29°درجة مئوية
الرطوبة 79%
ضغط 1008 hPa
الرؤية: 19.3 كم
غيوم متفرقة على ارتفاع 1600 قدم, مزن ركامية عمودية.
غيوم مفككة على ارتفاع 12000 قدم
ملبد بالغيوم على ارتفاع 30000 قدم

METAR: PTYA 210450Z VRB05KT 12SM SCT016TCU BKN120 OVC300 29/25 A2976 RMK TCU NE SLP078 T02940249

زمن: 03:26 (17:26 UTC)

توقعات

تاريخ ووقت الإصدار 18ساعات و 0 دقيقة قبل الساعة 23:26UTC
التوقعات صالحة من21 الساعة 00 UTC إلى 21 الساعة 24 UTC
ريح 8 عقدة من الغرب/الجنوب الغربي
الرؤية: 10 كم
غيوم متفرقة على ارتفاع 1600 قدم
غيوم متفرقة على ارتفاع 3000 قدم
ملبد بالغيوم على ارتفاع 12000 قدم
زخات في الجوار
مؤقت
من 21 الساعة 00 UTC إلى 21 الساعة 04 UTC
الرؤية: 6.4 كم
غيوم متفرقة على ارتفاع 1600 قدم
ملبد بالغيوم على ارتفاع 3000 قدم
زخات من المطر

TAF: PTYA 202326Z 2100/2124 24008KT P6SM VCSH SCT016 SCT030 OVC120 TEMPO 2100/2104 4SM SHRA SCT016 OVC030

أرصاد الطقس والتوقعات من أكثر من 4000 مطار (تقارير الطقس للمطار METAR والتنبؤ بالطقس بالمطارTAF).

المحطات المتاحة هي النقط الصفراء والحمراء على الخريطة.

حرك المؤشر فوق النقطة لمعرفة اسم المحطة.

ثم انقر لمعرفة أرصاد وتوقعات الطقس.

لتغيير الخارطة: اضغط على الأزرار الخضراء مع رمز الصليب الأسود للتكبير. على الزر الأخضر مع شرطة للتصغير، أو على الأسهم الخضراء للخرائط المجاورة.


METAR-TAF: